Time;durP1;ratioP1;P1;durP2;ratioP2;P2;SDS_P1;SDS_P2;PMS_P1;PMS_P2;Temp;Humidity;BMP_temperature;BMP_pressure;BME280_temperature;BME280_humidity;BME280_pressure;Samples;Min_cycle;Max_cycle;Signal;HPM_P1;HPM_P2
2023/08/23 00:00:11;;;;;;;0.40;0.40;;;18.70;99.90;;;;;;4399031;32;20134;-64
2023/08/23 00:02:36;;;;;;;7.87;0.98;;;18.80;99.90;;;;;;4396411;32;20054;-64
2023/08/23 00:05:01;;;;;;;1.87;1.30;;;18.80;99.90;;;;;;4398236;32;20526;-65
2023/08/23 00:07:27;;;;;;;0.57;0.57;;;18.70;99.90;;;;;;4397303;32;20156;-64
2023/08/23 00:09:53;;;;;;;0.55;0.50;;;18.70;99.90;;;;;;4398968;32;20436;-64
2023/08/23 00:12:18;;;;;;;0.40;0.40;;;18.70;99.90;;;;;;4396393;32;20407;-64
2023/08/23 00:14:44;;;;;;;0.40;0.40;;;18.70;99.90;;;;;;4398306;32;20443;-64
2023/08/23 00:17:09;;;;;;;1.75;1.08;;;18.70;99.90;;;;;;4398294;32;20113;-65
2023/08/23 00:19:35;;;;;;;0.85;0.85;;;18.70;99.90;;;;;;4398761;32;20125;-64
2023/08/23 00:22:02;;;;;;;1.10;0.80;;;18.70;99.90;;;;;;4398117;32;20066;-65
2023/08/23 00:24:28;;;;;;;0.52;0.52;;;18.70;99.90;;;;;;4397266;32;20517;-64
2023/08/23 00:26:55;;;;;;;0.50;0.50;;;18.60;99.90;;;;;;4398555;32;20209;-65
2023/08/23 00:29:20;;;;;;;0.50;0.50;;;18.60;99.90;;;;;;4396892;32;20125;-65
2023/08/23 00:31:45;;;;;;;0.57;0.40;;;18.50;99.90;;;;;;4394181;32;20517;-64
2023/08/23 00:34:11;;;;;;;8.82;0.80;;;18.40;99.90;;;;;;4398786;32;20534;-64
2023/08/23 00:36:36;;;;;;;0.30;0.30;;;18.30;99.90;;;;;;4397418;32;20058;-64
2023/08/23 00:39:02;;;;;;;2.42;0.60;;;18.30;99.90;;;;;;4396482;32;20094;-64
2023/08/23 00:41:27;;;;;;;1.90;0.62;;;18.30;99.90;;;;;;4397510;32;20395;-64
2023/08/23 00:43:53;;;;;;;0.57;0.57;;;18.30;99.90;;;;;;4397428;32;20090;-66
2023/08/23 00:46:19;;;;;;;0.60;0.60;;;18.40;99.90;;;;;;4396817;32;20138;-65
2023/08/23 00:48:46;;;;;;;0.45;0.45;;;18.30;99.90;;;;;;4397950;32;20086;-66
2023/08/23 00:51:13;;;;;;;0.50;0.50;;;18.40;99.90;;;;;;4397704;32;20112;-66
2023/08/23 00:53:39;;;;;;;0.57;0.57;;;18.20;99.90;;;;;;4397575;32;20091;-65
2023/08/23 00:56:05;;;;;;;2.10;0.85;;;18.20;99.90;;;;;;4397999;32;20078;-66
2023/08/23 00:58:31;;;;;;;0.37;0.37;;;18.30;99.90;;;;;;4396047;32;20162;-65
2023/08/23 01:00:57;;;;;;;1.12;0.90;;;18.30;99.90;;;;;;4396312;32;20065;-67
2023/08/23 01:03:23;;;;;;;0.85;0.80;;;18.30;99.90;;;;;;4397273;32;20062;-65
2023/08/23 01:06:17;;;;;;;1.12;1.05;;;18.30;99.90;;;;;;4399108;32;20074;-65
2023/08/23 01:09:06;;;;;;;0.30;0.30;;;18.30;99.90;;;;;;4386843;32;20071;-65
2023/08/23 01:11:50;;;;;;;0.65;0.65;;;18.30;99.90;;;;;;4388237;32;20065;-66
2023/08/23 01:14:22;;;;;;;1.23;1.12;;;18.30;99.90;;;;;;4397860;32;20085;-65
2023/08/23 01:16:48;;;;;;;1.17;0.80;;;18.30;99.90;;;;;;4391799;32;20459;-65
2023/08/23 01:19:35;;;;;;;0.45;0.45;;;18.30;99.90;;;;;;4398683;32;20091;-66
2023/08/23 01:22:04;;;;;;;0.62;0.62;;;18.10;99.90;;;;;;4399832;32;20105;-65
2023/08/23 01:24:31;;;;;;;0.45;0.45;;;18.20;99.90;;;;;;4400191;32;20116;-66
2023/08/23 01:26:56;;;;;;;1.48;0.50;;;18.10;99.90;;;;;;4398140;32;20070;-66
2023/08/23 01:29:22;;;;;;;0.52;0.40;;;18.10;99.90;;;;;;4397476;32;20622;-65
2023/08/23 01:31:53;;;;;;;0.32;0.32;;;18.20;99.90;;;;;;4397860;32;20061;-66
2023/08/23 01:34:26;;;;;;;;;;;18.20;99.90;;;;;;4397522;32;20058;-65
2023/08/23 01:36:54;;;;;;;0.50;0.47;;;18.10;99.90;;;;;;4397716;32;20335;-65
2023/08/23 01:39:24;;;;;;;0.52;0.40;;;18.00;99.90;;;;;;4399542;32;20113;-65
2023/08/23 01:41:50;;;;;;;0.62;0.62;;;17.90;99.90;;;;;;4399261;32;20501;-65
2023/08/23 01:44:15;;;;;;;1.00;0.90;;;18.00;99.90;;;;;;4397739;32;20078;-67
2023/08/23 01:46:41;;;;;;;1.65;0.90;;;18.00;99.90;;;;;;4398661;32;20081;-64
2023/08/23 01:49:06;;;;;;;0.47;0.47;;;18.00;99.90;;;;;;4399017;32;20058;-65
2023/08/23 01:51:32;;;;;;;0.50;0.50;;;18.00;99.90;;;;;;4396636;32;20463;-66
2023/08/23 01:53:57;;;;;;;0.37;0.37;;;18.10;99.90;;;;;;4400152;32;20070;-65
2023/08/23 01:56:23;;;;;;;1.50;0.70;;;18.10;99.90;;;;;;4399344;32;20161;-65
2023/08/23 01:58:48;;;;;;;0.30;0.30;;;18.00;99.90;;;;;;4399693;32;20046;-65
2023/08/23 02:01:14;;;;;;;0.35;0.35;;;18.00;99.90;;;;;;4399772;32;20062;-65
2023/08/23 02:03:39;;;;;;;0.50;0.50;;;18.00;99.90;;;;;;4398975;32;20079;-65
2023/08/23 02:06:05;;;;;;;1.15;0.85;;;17.90;99.90;;;;;;4401257;32;20078;-65
2023/08/23 02:08:30;;;;;;;0.50;0.50;;;17.80;99.90;;;;;;4399650;32;20082;-65
2023/08/23 02:10:55;;;;;;;0.65;0.62;;;17.90;99.90;;;;;;4401010;32;20133;-65
2023/08/23 02:13:21;;;;;;;0.50;0.50;;;17.80;99.90;;;;;;4398862;32;20066;-65
2023/08/23 02:15:47;;;;;;;0.68;0.68;;;17.70;99.90;;;;;;4399602;32;20065;-65
2023/08/23 02:18:12;;;;;;;1.12;1.02;;;17.70;99.90;;;;;;4397991;32;20078;-66
2023/08/23 02:20:38;;;;;;;0.50;0.50;;;17.60;99.90;;;;;;4398804;32;20079;-65
2023/08/23 02:23:03;;;;;;;0.52;0.52;;;17.60;99.90;;;;;;4397654;32;20070;-65
2023/08/23 02:25:29;;;;;;;0.32;0.32;;;17.50;99.90;;;;;;4398930;32;20086;-66
2023/08/23 02:27:55;;;;;;;0.88;0.60;;;17.50;99.90;;;;;;4399828;32;20087;-67
2023/08/23 02:30:21;;;;;;;0.50;0.50;;;17.50;99.90;;;;;;4400312;32;20456;-66
2023/08/23 02:32:46;;;;;;;0.70;0.50;;;17.50;99.90;;;;;;4399722;32;20078;-66
2023/08/23 02:35:13;;;;;;;2.53;0.75;;;17.50;99.90;;;;;;4398693;32;20095;-65
2023/08/23 02:37:38;;;;;;;0.85;0.85;;;17.50;99.90;;;;;;4400353;32;20121;-65
2023/08/23 02:40:04;;;;;;;0.37;0.37;;;17.40;99.90;;;;;;4400560;32;20070;-66
2023/08/23 02:42:30;;;;;;;1.55;0.70;;;17.40;99.90;;;;;;4398608;32;20074;-65
2023/08/23 02:44:55;;;;;;;5.62;0.95;;;17.40;99.90;;;;;;4399509;32;20086;-67
2023/08/23 02:47:21;;;;;;;0.47;0.47;;;17.40;99.90;;;;;;4398943;32;20086;-65
2023/08/23 02:49:46;;;;;;;0.50;0.50;;;17.30;99.90;;;;;;4401047;32;20066;-66
2023/08/23 02:52:12;;;;;;;0.30;0.30;;;17.40;99.90;;;;;;4398089;32;20157;-65
2023/08/23 02:54:37;;;;;;;1.05;0.60;;;17.50;99.90;;;;;;4399220;32;20620;-65
2023/08/23 02:57:03;;;;;;;0.40;0.40;;;17.50;99.90;;;;;;4398763;32;20065;-66
2023/08/23 02:59:29;;;;;;;1.08;0.90;;;17.60;99.90;;;;;;4399823;32;20066;-66
2023/08/23 03:01:54;;;;;;;0.55;0.52;;;17.60;99.90;;;;;;4397925;32;20074;-66
2023/08/23 03:04:19;;;;;;;1.02;0.82;;;17.60;99.90;;;;;;4400465;32;20069;-66
2023/08/23 03:06:45;;;;;;;0.68;0.60;;;17.60;99.90;;;;;;4399123;32;20061;-65
2023/08/23 03:09:10;;;;;;;0.50;0.50;;;17.70;99.90;;;;;;4400488;32;20066;-66
2023/08/23 03:11:36;;;;;;;0.60;0.60;;;17.70;99.90;;;;;;4399859;32;20095;-65
2023/08/23 03:14:01;;;;;;;3.00;0.90;;;17.80;99.90;;;;;;4399086;32;20086;-65
2023/08/23 03:16:27;;;;;;;5.30;1.20;;;17.80;99.90;;;;;;4398456;32;20082;-65
2023/08/23 03:18:52;;;;;;;0.73;0.62;;;17.70;99.90;;;;;;4398369;32;20082;-66
2023/08/23 03:21:18;;;;;;;1.15;0.80;;;17.80;99.90;;;;;;4398348;32;20074;-65
2023/08/23 03:23:43;;;;;;;1.75;0.82;;;17.70;99.90;;;;;;4399326;32;20070;-66
2023/08/23 03:26:08;;;;;;;0.98;0.95;;;17.60;99.90;;;;;;4397043;32;20128;-65
2023/08/23 03:28:34;;;;;;;1.98;1.02;;;17.50;99.90;;;;;;4398994;32;20090;-65
2023/08/23 03:31:03;;;;;;;0.50;0.50;;;17.50;99.90;;;;;;4398994;32;20109;-66
2023/08/23 03:33:29;;;;;;;0.50;0.50;;;17.60;99.90;;;;;;4399938;32;20086;-65
2023/08/23 03:35:54;;;;;;;0.95;0.70;;;17.60;99.90;;;;;;4399605;32;20125;-66
2023/08/23 03:38:20;;;;;;;1.02;0.60;;;17.60;99.90;;;;;;4401247;32;20517;-66
2023/08/23 03:40:45;;;;;;;0.40;0.40;;;17.70;99.90;;;;;;4400009;32;20086;-67
2023/08/23 03:43:11;;;;;;;0.73;0.68;;;17.50;99.90;;;;;;4401509;32;20078;-65
2023/08/23 03:45:36;;;;;;;0.70;0.70;;;17.50;99.90;;;;;;4400383;32;20777;-66
2023/08/23 03:48:02;;;;;;;0.77;0.77;;;17.50;99.90;;;;;;4399722;32;20074;-66
2023/08/23 03:50:28;;;;;;;0.30;0.30;;;17.50;99.90;;;;;;4399797;32;20113;-65
2023/08/23 03:52:53;;;;;;;0.45;0.45;;;17.50;99.90;;;;;;4399619;32;20094;-66
2023/08/23 03:55:19;;;;;;;0.98;0.77;;;17.50;99.90;;;;;;4400592;32;20082;-66
2023/08/23 03:57:44;;;;;;;0.47;0.47;;;17.50;99.90;;;;;;4400787;32;20074;-65
2023/08/23 04:00:10;;;;;;;0.52;0.52;;;17.50;99.90;;;;;;4400154;32;20613;-65
2023/08/23 04:02:36;;;;;;;0.45;0.45;;;17.30;99.90;;;;;;4398922;32;20128;-65
2023/08/23 04:05:05;;;;;;;0.60;0.60;;;17.20;99.90;;;;;;4402657;32;20077;-65
2023/08/23 04:07:31;;;;;;;0.37;0.37;;;17.20;99.90;;;;;;4398526;32;20573;-65
2023/08/23 04:09:56;;;;;;;0.40;0.40;;;17.10;99.90;;;;;;4400179;32;20129;-65
2023/08/23 04:12:21;;;;;;;0.65;0.65;;;17.10;99.90;;;;;;4398163;32;20101;-65
2023/08/23 04:14:47;;;;;;;0.60;0.60;;;17.10;99.90;;;;;;4399762;32;20058;-65
2023/08/23 04:17:12;;;;;;;0.95;0.70;;;17.10;99.90;;;;;;4398927;32;20085;-65
2023/08/23 04:19:38;;;;;;;0.60;0.60;;;17.30;99.90;;;;;;4399733;32;20085;-66
2023/08/23 04:22:03;;;;;;;0.50;0.50;;;17.30;99.90;;;;;;4398705;32;20090;-67
2023/08/23 04:24:29;;;;;;;1.30;0.95;;;17.20;99.90;;;;;;4399915;32;20261;-66
2023/08/23 04:26:55;;;;;;;0.65;0.50;;;17.10;99.90;;;;;;4397959;32;20066;-66
2023/08/23 04:29:20;;;;;;;0.75;0.75;;;17.10;99.90;;;;;;4396834;32;20431;-65
2023/08/23 04:31:45;;;;;;;0.93;0.93;;;17.00;99.90;;;;;;4398127;32;20161;-65
2023/08/23 04:34:11;;;;;;;1.17;0.62;;;17.00;99.90;;;;;;4398230;32;20110;-65
2023/08/23 04:36:36;;;;;;;0.40;0.40;;;17.00;99.90;;;;;;4399740;32;20086;-65
2023/08/23 04:39:02;;;;;;;10.85;1.25;;;17.10;99.90;;;;;;4401402;32;20547;-65
2023/08/23 04:41:27;;;;;;;0.55;0.50;;;17.10;99.90;;;;;;4400048;32;20062;-66
2023/08/23 04:43:53;;;;;;;0.55;0.55;;;17.10;99.90;;;;;;4401030;32;20069;-65
2023/08/23 04:46:18;;;;;;;1.95;1.12;;;17.00;99.90;;;;;;4401557;32;20133;-66
2023/08/23 04:48:44;;;;;;;0.50;0.50;;;17.00;99.90;;;;;;4402246;32;20089;-65
2023/08/23 04:51:09;;;;;;;1.65;0.88;;;17.10;99.90;;;;;;4400066;32;20128;-65
2023/08/23 04:53:35;;;;;;;1.20;0.75;;;17.10;99.90;;;;;;4401372;32;20065;-66
2023/08/23 04:56:01;;;;;;;1.10;0.98;;;17.10;99.90;;;;;;4400651;32;20616;-65
2023/08/23 04:58:30;;;;;;;0.50;0.50;;;17.10;99.90;;;;;;4400073;32;20079;-66
2023/08/23 05:01:03;;;;;;;0.50;0.50;;;17.10;99.90;;;;;;4400746;32;20093;-66
2023/08/23 05:03:29;;;;;;;2.42;0.62;;;17.20;99.90;;;;;;4401307;32;20118;-65
2023/08/23 05:05:54;;;;;;;0.45;0.45;;;17.30;99.90;;;;;;4400033;32;20098;-66
2023/08/23 05:08:20;;;;;;;4.07;0.73;;;17.30;99.90;;;;;;4399684;32;20098;-65
2023/08/23 05:10:51;;;;;;;0.40;0.40;;;17.30;99.90;;;;;;4398932;32;20470;-66
2023/08/23 05:13:17;;;;;;;0.55;0.55;;;17.40;99.90;;;;;;4400141;32;20058;-65
2023/08/23 05:15:42;;;;;;;3.05;0.75;;;17.50;99.90;;;;;;4400290;32;20311;-66
2023/08/23 05:18:08;;;;;;;0.95;0.65;;;17.50;99.90;;;;;;4401085;32;20082;-65
2023/08/23 05:20:36;;;;;;;4.07;0.95;;;17.60;99.90;;;;;;4400996;32;20114;-64
2023/08/23 05:23:01;;;;;;;0.30;0.30;;;17.60;99.90;;;;;;4400391;32;20062;-64
2023/08/23 05:25:28;;;;;;;0.40;0.40;;;17.60;99.90;;;;;;4400964;32;20083;-64
2023/08/23 05:27:53;;;;;;;2.45;1.30;;;17.60;99.90;;;;;;4401295;32;20063;-64
2023/08/23 05:30:19;;;;;;;0.35;0.35;;;17.70;99.90;;;;;;4399506;32;20062;-65
2023/08/23 05:32:45;;;;;;;4.72;1.85;;;17.70;99.90;;;;;;4401847;32;20073;-65
2023/08/23 05:35:10;;;;;;;1.10;0.77;;;17.80;99.90;;;;;;4402771;32;20074;-64
2023/08/23 05:37:36;;;;;;;4.15;1.15;;;17.90;99.90;;;;;;4401626;32;20106;-64
2023/08/23 05:40:01;;;;;;;0.98;0.47;;;18.00;99.90;;;;;;4400813;32;20608;-66
2023/08/23 05:42:27;;;;;;;0.50;0.50;;;18.10;99.90;;;;;;4402484;32;20080;-64
2023/08/23 05:44:52;;;;;;;0.60;0.60;;;18.10;99.90;;;;;;4400541;32;20152;-65
2023/08/23 05:47:18;;;;;;;0.30;0.30;;;18.20;99.90;;;;;;4401542;32;20065;-64
2023/08/23 05:49:43;;;;;;;2.78;0.88;;;18.20;99.90;;;;;;4403565;32;20185;-64
2023/08/23 05:52:09;;;;;;;0.40;0.40;;;18.30;99.90;;;;;;4401156;32;20086;-64
2023/08/23 05:54:34;;;;;;;1.20;0.73;;;18.30;99.90;;;;;;4403347;32;20564;-66
2023/08/23 05:57:00;;;;;;;0.50;0.50;;;18.40;99.90;;;;;;4397911;32;20074;-65
2023/08/23 05:59:26;;;;;;;0.73;0.47;;;18.40;99.90;;;;;;4390678;32;20070;-64
2023/08/23 06:01:51;;;;;;;0.47;0.47;;;18.40;99.90;;;;;;4399375;32;20108;-64
2023/08/23 06:04:17;;;;;;;0.73;0.73;;;18.50;99.90;;;;;;4398048;32;20081;-64
2023/08/23 06:06:43;;;;;;;0.55;0.55;;;18.50;99.90;;;;;;4397397;32;20086;-65
2023/08/23 06:09:08;;;;;;;0.75;0.75;;;18.60;99.90;;;;;;4398368;32;20119;-65
2023/08/23 06:11:33;;;;;;;0.73;0.73;;;18.70;99.90;;;;;;4397634;32;20066;-65
2023/08/23 06:13:59;;;;;;;2.60;0.73;;;18.70;99.90;;;;;;4396410;32;20074;-64
2023/08/23 06:16:24;;;;;;;1.15;1.05;;;18.80;99.90;;;;;;4389017;32;20090;-64
2023/08/23 06:18:50;;;;;;;0.40;0.40;;;18.90;99.90;;;;;;4402824;32;20125;-64
2023/08/23 06:21:15;;;;;;;0.50;0.50;;;18.90;99.90;;;;;;4399880;32;20081;-62
2023/08/23 06:23:43;;;;;;;0.50;0.50;;;19.00;99.90;;;;;;4395762;32;20129;-61
2023/08/23 06:26:09;;;;;;;0.95;0.80;;;19.00;99.90;;;;;;4395188;32;20118;-62
2023/08/23 06:28:35;;;;;;;0.47;0.47;;;19.10;99.90;;;;;;4380773;32;20198;-60
2023/08/23 06:31:01;;;;;;;0.30;0.30;;;19.20;99.90;;;;;;4396188;32;20073;-60
2023/08/23 06:33:27;;;;;;;0.40;0.40;;;19.30;99.90;;;;;;4380673;32;20070;-61
2023/08/23 06:35:52;;;;;;;0.50;0.50;;;19.30;99.90;;;;;;4388133;32;20078;-60
2023/08/23 06:38:18;;;;;;;1.05;0.98;;;19.40;99.90;;;;;;4390834;32;20138;-60
2023/08/23 06:40:44;;;;;;;0.60;0.50;;;19.50;99.90;;;;;;4389069;32;20093;-62
2023/08/23 06:43:17;;;;;;;0.45;0.45;;;19.50;99.90;;;;;;4393019;32;20177;-62
2023/08/23 06:45:42;;;;;;;0.57;0.57;;;19.60;99.90;;;;;;4388554;32;20462;-62
2023/08/23 06:48:08;;;;;;;0.40;0.40;;;19.70;99.90;;;;;;4389477;32;20069;-61
2023/08/23 06:50:35;;;;;;;0.37;0.37;;;19.80;99.90;;;;;;4392230;32;20570;-60
2023/08/23 06:53:00;;;;;;;0.37;0.37;;;19.90;99.90;;;;;;4393455;32;21285;-62
2023/08/23 06:55:27;;;;;;;3.00;1.05;;;20.00;99.90;;;;;;4393595;32;20066;-62
2023/08/23 06:57:52;;;;;;;0.40;0.40;;;20.20;99.90;;;;;;4390510;32;20093;-60
2023/08/23 07:00:18;;;;;;;0.98;0.50;;;20.30;99.90;;;;;;4392243;32;20098;-61
2023/08/23 07:02:44;;;;;;;0.43;0.40;;;20.30;99.90;;;;;;4391258;32;20101;-62
2023/08/23 07:05:09;;;;;;;0.52;0.50;;;20.30;99.90;;;;;;4378918;32;20121;-62
2023/08/23 07:07:35;;;;;;;3.35;0.75;;;20.40;99.90;;;;;;4380815;32;20106;-63
2023/08/23 07:10:00;;;;;;;0.40;0.40;;;20.40;99.90;;;;;;4384577;32;20163;-61
2023/08/23 07:12:27;;;;;;;0.30;0.30;;;20.60;99.90;;;;;;4373084;32;20491;-62
2023/08/23 07:14:53;;;;;;;1.55;0.82;;;20.60;99.90;;;;;;4375531;32;20097;-61
2023/08/23 07:17:18;;;;;;;0.30;0.30;;;20.60;99.90;;;;;;4376909;32;20113;-61
2023/08/23 07:19:44;;;;;;;0.28;0.28;;;20.70;99.90;;;;;;4377842;32;20085;-60
2023/08/23 07:22:09;;;;;;;2.10;0.98;;;20.80;99.90;;;;;;4383010;32;20078;-61
2023/08/23 07:24:35;;;;;;;0.40;0.40;;;20.80;99.90;;;;;;4374959;32;20590;-61
2023/08/23 07:27:00;;;;;;;0.45;0.43;;;20.90;99.90;;;;;;4374826;32;20087;-61
2023/08/23 07:29:26;;;;;;;4.78;1.60;;;21.00;99.90;;;;;;4380066;32;20470;-61
2023/08/23 07:31:51;;;;;;;0.40;0.40;;;21.00;99.90;;;;;;4382712;32;20077;-61
2023/08/23 07:34:17;;;;;;;0.30;0.30;;;21.10;99.90;;;;;;4378739;32;20820;-61
2023/08/23 07:36:43;;;;;;;0.30;0.30;;;21.20;99.90;;;;;;4367198;32;21093;-61
2023/08/23 07:39:08;;;;;;;0.30;0.30;;;21.30;99.90;;;;;;4382297;32;20101;-60
2023/08/23 07:41:34;;;;;;;0.30;0.30;;;21.40;99.90;;;;;;4383506;32;20098;-61
2023/08/23 07:43:59;;;;;;;0.43;0.43;;;21.50;99.90;;;;;;4382365;32;20071;-61
2023/08/23 07:46:25;;;;;;;0.50;0.50;;;21.60;99.90;;;;;;4382491;32;20116;-61
2023/08/23 07:48:50;;;;;;;0.50;0.50;;;21.70;99.90;;;;;;4377564;32;20854;-60
2023/08/23 07:51:15;;;;;;;1.12;0.45;;;21.80;99.90;;;;;;4380312;32;20101;-61
2023/08/23 07:53:43;;;;;;;0.30;0.30;;;21.90;99.90;;;;;;4387048;32;20339;-60
2023/08/23 07:56:10;;;;;;;0.43;0.37;;;21.90;99.90;;;;;;4377218;32;20089;-61
2023/08/23 07:58:38;;;;;;;0.40;0.40;;;21.90;99.90;;;;;;4380191;32;20547;-61
2023/08/23 08:01:04;;;;;;;0.60;0.50;;;22.00;99.90;;;;;;4371388;32;20628;-62
2023/08/23 08:03:30;;;;;;;0.30;0.30;;;22.10;99.90;;;;;;4352989;32;20097;-60
2023/08/23 08:05:55;;;;;;;0.20;0.20;;;22.20;99.90;;;;;;4367813;32;20350;-61
2023/08/23 08:08:21;;;;;;;0.62;0.62;;;22.30;99.90;;;;;;4361444;32;20177;-61
2023/08/23 08:10:49;;;;;;;0.40;0.37;;;22.40;99.90;;;;;;4373850;32;20661;-62
2023/08/23 08:13:16;;;;;;;0.30;0.30;;;22.50;99.90;;;;;;4355398;32;20086;-61
2023/08/23 08:15:43;;;;;;;0.25;0.25;;;22.50;99.90;;;;;;4356761;32;20082;-63
2023/08/23 08:18:10;;;;;;;0.47;0.47;;;22.60;99.90;;;;;;4367852;32;20085;-62
2023/08/23 08:20:36;;;;;;;0.20;0.20;;;22.60;99.90;;;;;;4363034;32;20220;-62
2023/08/23 08:23:01;;;;;;;0.30;0.30;;;22.60;99.90;;;;;;4380761;32;20152;-61
2023/08/23 08:25:27;;;;;;;0.62;0.52;;;22.70;99.90;;;;;;4389815;32;20398;-63
2023/08/23 08:27:52;;;;;;;0.68;0.68;;;22.70;99.90;;;;;;4389314;32;20082;-64
2023/08/23 08:30:18;;;;;;;0.55;0.45;;;22.80;99.90;;;;;;4396020;32;20117;-64
2023/08/23 08:32:44;;;;;;;1.42;1.00;;;22.90;99.90;;;;;;4387009;32;20070;-63
2023/08/23 08:35:10;;;;;;;0.40;0.40;;;23.10;99.90;;;;;;4378994;32;20094;-63
2023/08/23 08:37:37;;;;;;;0.30;0.30;;;23.10;99.90;;;;;;4376937;32;20091;-63
2023/08/23 08:40:03;;;;;;;0.55;0.55;;;23.20;99.90;;;;;;4365172;32;20109;-63
2023/08/23 08:42:29;;;;;;;0.50;0.50;;;23.20;99.90;;;;;;4361601;32;20138;-63
2023/08/23 08:44:54;;;;;;;1.15;0.37;;;23.30;99.90;;;;;;4378357;32;20458;-63
2023/08/23 08:47:21;;;;;;;0.30;0.30;;;23.30;99.90;;;;;;4363255;32;20089;-62
2023/08/23 08:49:47;;;;;;;0.55;0.55;;;23.30;99.90;;;;;;4378331;32;20157;-62
2023/08/23 08:52:14;;;;;;;0.80;0.60;;;23.40;99.90;;;;;;4366010;32;20129;-62
2023/08/23 08:54:42;;;;;;;0.37;0.37;;;23.40;99.90;;;;;;4373105;32;20398;-61
2023/08/23 08:57:09;;;;;;;0.30;0.30;;;23.50;99.90;;;;;;4367129;32;20105;-61
2023/08/23 08:59:35;;;;;;;0.30;0.30;;;23.60;99.90;;;;;;4366622;32;20153;-62
2023/08/23 09:02:04;;;;;;;0.30;0.30;;;23.60;99.90;;;;;;4366986;32;20152;-62
2023/08/23 09:04:30;;;;;;;0.40;0.40;;;23.80;99.90;;;;;;4361018;32;20164;-61
2023/08/23 09:06:56;;;;;;;0.95;0.80;;;23.90;99.90;;;;;;4364146;32;20144;-60
2023/08/23 09:09:22;;;;;;;0.68;0.68;;;24.00;99.90;;;;;;4368349;32;20107;-60
2023/08/23 09:11:47;;;;;;;0.32;0.30;;;24.10;99.90;;;;;;4367638;32;20428;-61
2023/08/23 09:14:15;;;;;;;0.68;0.68;;;24.20;99.90;;;;;;4364341;32;20811;-61
2023/08/23 09:16:41;;;;;;;0.50;0.50;;;24.40;99.90;;;;;;4364229;32;20078;-60
2023/08/23 09:19:10;;;;;;;4.47;1.10;;;24.50;99.90;;;;;;4375681;32;20105;-61
2023/08/23 09:21:35;;;;;;;0.30;0.30;;;24.80;99.90;;;;;;4356310;32;20409;-61
2023/08/23 09:24:01;;;;;;;0.37;0.37;;;24.90;99.90;;;;;;4367585;32;20249;-60
2023/08/23 09:26:26;;;;;;;0.20;0.20;;;24.90;99.90;;;;;;4374318;32;20113;-61
2023/08/23 09:28:52;;;;;;;0.43;0.43;;;24.80;99.90;;;;;;4368191;32;20220;-61
2023/08/23 09:31:18;;;;;;;0.20;0.20;;;24.60;99.90;;;;;;4367094;32;20077;-60
2023/08/23 09:33:45;;;;;;;2.37;1.08;;;24.70;99.90;;;;;;4361712;32;20185;-60
2023/08/23 09:36:24;;;;;;;0.20;0.20;;;24.90;99.90;;;;;;4365281;32;20094;-61
2023/08/23 09:38:50;;;;;;;0.32;0.32;;;24.90;99.90;;;;;;4357239;32;20137;-60
2023/08/23 09:41:15;;;;;;;0.20;0.20;;;24.80;99.90;;;;;;4380841;32;20142;-61
2023/08/23 09:43:42;;;;;;;0.20;0.20;;;24.80;99.90;;;;;;4377093;32;20140;-62
2023/08/23 09:46:09;;;;;;;0.45;0.45;;;24.80;99.90;;;;;;4355639;32;20553;-61
2023/08/23 09:48:36;;;;;;;2.17;0.77;;;24.90;99.90;;;;;;4379627;32;20114;-60
2023/08/23 09:51:03;;;;;;;2.00;0.55;;;24.90;99.90;;;;;;4378780;32;20106;-62
2023/08/23 09:53:34;;;;;;;0.15;0.15;;;25.00;99.90;;;;;;4375532;32;20089;-60
2023/08/23 09:56:02;;;;;;;10.57;0.40;;;25.30;99.90;;;;;;4370029;32;20094;-61
2023/08/23 09:58:28;;;;;;;0.22;0.22;;;25.50;99.90;;;;;;4382113;27;20099;-76
2023/08/23 10:00:55;;;;;;;0.15;0.15;;;25.50;99.90;;;;;;4377785;32;20113;-73
2023/08/23 10:03:21;;;;;;;0.32;0.22;;;25.50;99.90;;;;;;4375111;32;20118;-74
2023/08/23 10:05:48;;;;;;;0.10;0.10;;;25.50;99.90;;;;;;4391958;32;20150;-74
2023/08/23 10:08:14;;;;;;;0.35;0.25;;;25.50;99.90;;;;;;4396056;32;20066;-76
2023/08/23 10:10:42;;;;;;;0.30;0.30;;;25.50;99.90;;;;;;4390164;32;20078;-75
2023/08/23 10:13:08;;;;;;;38.47;0.95;;;25.40;99.90;;;;;;4411186;27;20034;-62
2023/08/23 10:15:37;;;;;;;0.30;0.30;;;25.40;99.90;;;;;;4383503;32;20119;-62
2023/08/23 10:18:07;;;;;;;0.25;0.25;;;25.40;99.90;;;;;;4386630;32;20062;-62
2023/08/23 10:20:34;;;;;;;0.17;0.17;;;25.40;99.90;;;;;;4386598;32;20119;-62
2023/08/23 10:23:00;;;;;;;0.10;0.10;;;25.40;99.90;;;;;;4388586;32;20634;-62
2023/08/23 10:25:32;;;;;;;0.30;0.30;;;25.40;99.90;;;;;;4378094;32;20141;-62
2023/08/23 10:27:58;;;;;;;2.40;0.62;;;25.50;99.90;;;;;;4383911;32;20086;-62
2023/08/23 10:30:26;;;;;;;0.50;0.50;;;25.70;99.90;;;;;;4386156;32;20047;-62
2023/08/23 10:32:53;;;;;;;0.10;0.10;;;25.60;99.90;;;;;;4371008;32;20095;-62
2023/08/23 10:35:35;;;;;;;0.20;0.20;;;25.70;99.90;;;;;;4379342;32;20094;-61
2023/08/23 10:38:05;;;;;;;0.17;0.17;;;25.80;99.90;;;;;;4368002;32;20078;-62
2023/08/23 10:40:32;;;;;;;0.22;0.22;;;26.10;99.90;;;;;;4388146;32;20090;-63
2023/08/23 10:42:58;;;;;;;0.20;0.20;;;26.30;99.90;;;;;;4387888;32;20079;-63
2023/08/23 10:45:25;;;;;;;0.10;0.10;;;26.20;99.90;;;;;;4389234;32;20147;-62
2023/08/23 10:47:51;;;;;;;0.20;0.20;;;26.30;99.90;;;;;;4386211;32;20098;-63
2023/08/23 10:50:18;;;;;;;0.10;0.10;;;26.50;99.90;;;;;;4386582;32;20103;-63
2023/08/23 10:52:46;;;;;;;0.30;0.30;;;26.80;99.90;;;;;;4374344;32;20103;-63
2023/08/23 10:55:11;;;;;;;0.55;0.55;;;26.90;99.90;;;;;;4393527;32;20063;-62
2023/08/23 10:57:37;;;;;;;0.30;0.30;;;27.00;99.90;;;;;;4388311;32;20094;-63
2023/08/23 11:00:04;;;;;;;0.10;0.10;;;27.00;99.90;;;;;;4366614;32;20082;-63
2023/08/23 11:02:31;;;;;;;0.10;0.10;;;27.10;99.90;;;;;;4386083;32;20055;-63
2023/08/23 11:04:57;;;;;;;0.20;0.20;;;27.40;99.90;;;;;;4388016;32;20159;-62
2023/08/23 11:07:25;;;;;;;15.07;0.35;;;27.60;99.90;;;;;;4376915;32;20390;-63
2023/08/23 11:09:51;;;;;;;0.28;0.20;;;27.80;99.90;;;;;;4378559;32;20089;-63
2023/08/23 11:12:16;;;;;;;0.20;0.13;;;28.00;99.90;;;;;;4354351;32;20178;-64
2023/08/23 11:14:42;;;;;;;0.10;0.10;;;28.30;99.90;;;;;;4357637;32;20571;-63
2023/08/23 11:17:08;;;;;;;0.20;0.20;;;28.50;99.90;;;;;;4356196;32;20079;-64
2023/08/23 11:19:33;;;;;;;0.47;0.45;;;28.50;99.90;;;;;;4361694;32;20393;-61
2023/08/23 11:22:00;;;;;;;0.17;0.17;;;28.50;99.90;;;;;;4391307;27;20481;-75
2023/08/23 11:24:27;;;;;;;9.10;0.62;;;28.80;99.90;;;;;;4381245;32;20117;-75
2023/08/23 11:26:52;;;;;;;0.22;0.22;;;28.80;99.90;;;;;;4375838;32;20646;-74
2023/08/23 11:29:18;;;;;;;0.10;0.10;;;28.50;99.80;;;;;;4379283;32;20070;-75
2023/08/23 11:31:53;;;;;;;0.22;0.22;;;28.60;99.90;;;;;;4379434;32;20151;-75
2023/08/23 11:34:20;;;;;;;0.50;0.22;;;29.00;99.80;;;;;;4381434;32;20408;-75
2023/08/23 11:36:45;;;;;;;0.10;0.10;;;29.20;99.00;;;;;;4379178;32;20089;-75
2023/08/23 11:39:13;;;;;;;0.65;0.40;;;29.20;99.90;;;;;;4382655;32;20197;-75
2023/08/23 11:41:40;;;;;;;0.20;0.20;;;29.40;99.50;;;;;;4381891;32;20070;-74
2023/08/23 11:44:07;;;;;;;0.30;0.30;;;29.60;97.30;;;;;;4378609;32;21567;-75
2023/08/23 11:46:38;;;;;;;0.20;0.20;;;29.80;97.40;;;;;;4381614;32;20090;-75
2023/08/23 11:49:05;;;;;;;0.28;0.25;;;30.20;96.50;;;;;;4388266;32;86290;-75
2023/08/23 11:51:50;;;;;;;0.17;0.17;;;30.40;97.20;;;;;;4381556;32;20085;-75
2023/08/23 11:54:17;;;;;;;0.20;0.20;;;30.30;96.20;;;;;;4374617;32;20066;-76
2023/08/23 11:56:45;;;;;;;0.28;0.15;;;30.00;95.80;;;;;;4387638;32;20113;-76
2023/08/23 11:59:12;;;;;;;1.73;0.30;;;30.00;95.50;;;;;;4382365;32;20097;-75
2023/08/23 12:01:38;;;;;;;0.20;0.20;;;29.90;96.30;;;;;;4366942;32;20102;-76
2023/08/23 12:04:06;;;;;;;0.20;0.20;;;30.20;94.50;;;;;;4367934;32;20105;-75
2023/08/23 12:06:32;;;;;;;0.28;0.28;;;30.30;93.90;;;;;;4362929;32;20133;-75
2023/08/23 12:08:58;;;;;;;0.40;0.20;;;30.50;94.00;;;;;;4365655;32;20089;-75
2023/08/23 12:11:23;;;;;;;0.10;0.10;;;31.00;93.00;;;;;;4365876;32;21411;-75
2023/08/23 12:13:50;;;;;;;0.20;0.20;;;31.30;92.40;;;;;;4372831;32;20181;-75
2023/08/23 12:16:15;;;;;;;0.20;0.20;;;31.10;91.70;;;;;;4363824;32;20122;-76
2023/08/23 12:18:41;;;;;;;0.20;0.20;;;31.10;92.60;;;;;;4367492;32;20585;-74
2023/08/23 12:21:06;;;;;;;0.10;0.10;;;31.70;91.50;;;;;;4386033;32;21553;-76
2023/08/23 12:23:32;;;;;;;2.05;0.55;;;32.30;91.50;;;;;;4387832;32;20107;-75
2023/08/23 12:25:57;;;;;;;0.10;0.10;;;32.10;90.50;;;;;;4389283;32;20070;-76
2023/08/23 12:28:23;;;;;;;0.20;0.20;;;31.80;91.30;;;;;;4395446;32;20291;-75
2023/08/23 12:30:48;;;;;;;0.20;0.20;;;31.90;91.30;;;;;;4394444;32;20113;-74
2023/08/23 12:33:14;;;;;;;0.17;0.17;;;32.00;90.50;;;;;;4391416;32;20074;-77
2023/08/23 12:35:39;;;;;;;21.50;0.98;;;31.80;90.80;;;;;;4391345;32;20082;-76
2023/08/23 12:38:05;;;;;;;0.10;0.10;;;31.80;90.50;;;;;;4394141;32;20085;-76
2023/08/23 12:40:30;;;;;;;1.23;0.55;;;32.30;88.80;;;;;;4390578;32;20078;-76
2023/08/23 12:42:56;;;;;;;0.17;0.17;;;32.40;89.10;;;;;;4393618;32;20221;-74